Time;durP1;ratioP1;P1;durP2;ratioP2;P2;SDS_P1;SDS_P2;PMS_P1;PMS_P2;Temp;Humidity;BMP_temperature;BMP_pressure;BME280_temperature;BME280_humidity;BME280_pressure;Samples;Min_cycle;Max_cycle;Signal;HPM_P1;HPM_P2
2022/03/22 00:01:50;;;;;;;21.92;12.10;;;;;;;;;;5020312;28;20160;-76
2022/03/22 00:04:16;;;;;;;23.95;12.05;;;;;;;;;;5019569;28;20041;-78
2022/03/22 00:06:41;;;;;;;21.35;11.40;;;;;;;;;;5017530;28;20423;-78
2022/03/22 00:09:07;;;;;;;21.73;11.43;;;;;;;;;;5009566;28;20113;-76
2022/03/22 00:11:33;;;;;;;26.58;12.52;;;;;;;;;;5011433;28;20363;-76
2022/03/22 00:13:58;;;;;;;28.60;12.77;;;;;;;;;;5011342;28;20049;-75
2022/03/22 00:16:23;;;;;;;23.48;11.63;;;;;;;;;;5012791;28;20025;-75
2022/03/22 00:18:48;;;;;;;25.20;12.07;;;;;;;;;;5010821;28;20040;-78
2022/03/22 00:21:14;;;;;;;21.90;11.77;;;;;;;;;;5011600;28;20383;-78
2022/03/22 00:23:39;;;;;;;19.50;10.38;;;;;;;;;;5009689;28;20030;-78
2022/03/22 00:26:04;;;;;;;25.38;11.30;;;;;;;;;;5011183;28;20026;-78
2022/03/22 00:28:30;;;;;;;25.33;11.70;;;;;;;;;;5010890;28;20506;-77
2022/03/22 00:30:56;;;;;;;22.42;11.85;;;;;;;;;;5011352;28;20022;-77
2022/03/22 00:33:21;;;;;;;21.83;10.32;;;;;;;;;;5028432;28;20032;-75
2022/03/22 00:35:48;;;;;;;21.20;11.73;;;;;;;;;;5030700;28;20029;-79
2022/03/22 00:38:16;;;;;;;22.83;11.70;;;;;;;;;;5028994;28;20082;-77
2022/03/22 00:40:42;;;;;;;21.25;11.18;;;;;;;;;;5031095;28;20490;-76
2022/03/22 00:43:07;;;;;;;23.95;11.75;;;;;;;;;;5030547;28;20089;-76
2022/03/22 00:45:33;;;;;;;24.55;12.40;;;;;;;;;;5030367;28;20080;-77
2022/03/22 00:47:59;;;;;;;21.65;12.27;;;;;;;;;;5029980;28;20100;-76
2022/03/22 00:50:28;;;;;;;20.27;11.20;;;;;;;;;;5012723;28;20081;-76
2022/03/22 00:52:54;;;;;;;26.48;13.23;;;;;;;;;;5009217;28;20029;-78
2022/03/22 00:55:23;;;;;;;26.58;11.73;;;;;;;;;;5009485;28;20426;-76
2022/03/22 00:57:48;;;;;;;24.95;11.57;;;;;;;;;;5010838;28;20025;-79
2022/03/22 01:00:14;;;;;;;24.80;11.63;;;;;;;;;;5010674;28;20018;-77
2022/03/22 01:02:43;;;;;;;27.10;12.07;;;;;;;;;;5011179;28;20014;-79
2022/03/22 01:05:17;;;;;;;28.45;11.50;;;;;;;;;;5010348;28;20486;-77
2022/03/22 01:07:44;;;;;;;25.15;12.43;;;;;;;;;;5010787;28;20101;-77
2022/03/22 01:10:10;;;;;;;22.25;11.32;;;;;;;;;;5010351;28;20521;-76
2022/03/22 01:12:36;;;;;;;28.20;12.80;;;;;;;;;;5010941;28;20033;-77
2022/03/22 01:15:03;;;;;;;20.70;10.43;;;;;;;;;;5009473;28;20030;-76
2022/03/22 01:17:31;;;;;;;25.52;12.68;;;;;;;;;;5009346;28;20018;-80
2022/03/22 01:19:56;;;;;;;21.63;11.25;;;;;;;;;;5016779;28;20040;-76
2022/03/22 01:22:22;;;;;;;26.83;11.73;;;;;;;;;;5029344;28;20533;-77
2022/03/22 01:24:48;;;;;;;31.27;12.40;;;;;;;;;;5029835;28;20443;-77
2022/03/22 01:27:13;;;;;;;24.67;11.02;;;;;;;;;;5028556;28;20025;-77
2022/03/22 01:29:38;;;;;;;24.60;11.20;;;;;;;;;;5029960;28;20033;-78
2022/03/22 01:32:05;;;;;;;24.25;12.18;;;;;;;;;;5029679;28;20101;-79
2022/03/22 01:34:30;;;;;;;25.98;12.02;;;;;;;;;;5029870;28;20021;-77
2022/03/22 01:36:55;;;;;;;25.25;11.45;;;;;;;;;;5032574;28;20025;-76
2022/03/22 01:39:21;;;;;;;25.27;11.90;;;;;;;;;;5034113;28;20025;-80
2022/03/22 01:41:46;;;;;;;25.85;12.13;;;;;;;;;;5032555;28;20045;-79
2022/03/22 01:44:11;;;;;;;27.00;11.75;;;;;;;;;;5033945;28;20029;-78
2022/03/22 01:46:37;;;;;;;22.35;11.65;;;;;;;;;;5032407;28;20041;-78
2022/03/22 01:49:03;;;;;;;23.80;12.15;;;;;;;;;;5015900;28;20073;-78
2022/03/22 01:51:31;;;;;;;25.08;11.95;;;;;;;;;;5013907;28;20014;-77
2022/03/22 01:53:57;;;;;;;24.83;11.88;;;;;;;;;;5015402;28;20049;-77
2022/03/22 01:56:22;;;;;;;23.95;12.55;;;;;;;;;;5013492;28;20107;-76
2022/03/22 01:58:47;;;;;;;24.73;11.15;;;;;;;;;;5013206;28;20510;-77
2022/03/22 02:06:44;;;;;;;26.40;11.98;;;;;;;;;;4996581;28;20057;-76
2022/03/22 02:09:10;;;;;;;30.55;12.85;;;;;;;;;;4993873;28;20043;-77
2022/03/22 02:11:35;;;;;;;29.17;13.25;;;;;;;;;;5016176;28;20473;-74
2022/03/22 02:14:00;;;;;;;29.02;11.98;;;;;;;;;;5033411;28;20095;-75
2022/03/22 02:16:25;;;;;;;26.00;12.95;;;;;;;;;;5037313;28;20101;-77
2022/03/22 02:18:51;;;;;;;24.83;13.43;;;;;;;;;;5038257;28;20025;-75
2022/03/22 02:21:18;;;;;;;24.65;12.73;;;;;;;;;;5037461;28;20091;-75
2022/03/22 02:23:53;;;;;;;29.38;14.38;;;;;;;;;;5037150;28;20018;-74
2022/03/22 02:26:19;;;;;;;25.88;12.68;;;;;;;;;;5033395;28;20025;-75
2022/03/22 02:28:45;;;;;;;29.80;13.55;;;;;;;;;;5032208;28;20037;-76
2022/03/22 02:31:10;;;;;;;30.55;13.40;;;;;;;;;;5032328;28;20021;-78
2022/03/22 02:33:39;;;;;;;31.50;13.30;;;;;;;;;;5031853;28;20048;-77
2022/03/22 02:36:05;;;;;;;30.20;13.10;;;;;;;;;;5031993;28;20028;-76
2022/03/22 02:38:31;;;;;;;28.45;12.93;;;;;;;;;;5033054;28;20017;-76
2022/03/22 02:40:56;;;;;;;28.70;13.27;;;;;;;;;;5032906;28;20039;-76
2022/03/22 02:43:21;;;;;;;28.10;14.05;;;;;;;;;;5030859;28;20051;-76
2022/03/22 02:45:47;;;;;;;27.30;13.30;;;;;;;;;;5031226;28;20022;-77
2022/03/22 02:48:12;;;;;;;32.95;12.50;;;;;;;;;;5028772;28;20570;-76
2022/03/22 02:50:37;;;;;;;26.95;13.32;;;;;;;;;;5011900;28;20439;-76
2022/03/22 02:53:02;;;;;;;32.35;13.38;;;;;;;;;;5013031;28;20048;-76
2022/03/22 02:55:28;;;;;;;24.05;11.98;;;;;;;;;;5013822;28;20026;-77
2022/03/22 02:57:53;;;;;;;30.52;13.93;;;;;;;;;;5012433;28;20053;-80
2022/03/22 03:00:19;;;;;;;29.48;14.40;;;;;;;;;;5012780;28;20018;-76
2022/03/22 03:02:48;;;;;;;27.17;13.77;;;;;;;;;;5030520;28;20025;-77
2022/03/22 03:05:14;;;;;;;31.10;14.38;;;;;;;;;;5029286;28;20116;-77
2022/03/22 03:07:39;;;;;;;30.50;14.25;;;;;;;;;;5030398;28;20133;-77
2022/03/22 03:10:06;;;;;;;35.15;16.13;;;;;;;;;;5032366;28;20056;-76
2022/03/22 03:12:32;;;;;;;29.20;14.73;;;;;;;;;;5032247;28;20017;-76
2022/03/22 03:14:57;;;;;;;30.35;14.40;;;;;;;;;;5032369;28;20064;-76
2022/03/22 03:17:22;;;;;;;34.30;14.98;;;;;;;;;;5032481;28;20030;-78
2022/03/22 03:19:47;;;;;;;30.30;13.95;;;;;;;;;;5032998;28;20035;-79
2022/03/22 03:22:13;;;;;;;27.60;13.90;;;;;;;;;;5028595;28;20017;-78
2022/03/22 03:24:38;;;;;;;31.98;14.80;;;;;;;;;;5015769;28;20025;-78
2022/03/22 03:27:03;;;;;;;29.42;14.32;;;;;;;;;;5015146;28;20049;-76
2022/03/22 03:29:28;;;;;;;27.95;13.55;;;;;;;;;;5011678;28;20042;-76
2022/03/22 03:31:54;;;;;;;30.95;14.88;;;;;;;;;;5012800;28;20097;-76
2022/03/22 03:34:19;;;;;;;29.65;14.38;;;;;;;;;;5012401;28;20025;-76
2022/03/22 03:36:45;;;;;;;27.75;13.93;;;;;;;;;;5011206;28;20022;-75
2022/03/22 03:39:11;;;;;;;28.88;13.32;;;;;;;;;;5011721;28;20026;-76
2022/03/22 03:41:56;;;;;;;29.92;14.10;;;;;;;;;;5011976;28;20092;-76
2022/03/22 03:47:13;;;;;;;26.70;12.95;;;;;;;;;;5011843;28;20080;-76
2022/03/22 03:49:43;;;;;;;26.83;12.95;;;;;;;;;;5010128;28;20026;-77
2022/03/22 03:52:10;;;;;;;32.90;14.48;;;;;;;;;;5011712;28;20096;-75
2022/03/22 03:54:36;;;;;;;22.73;12.23;;;;;;;;;;5011559;28;20026;-75
2022/03/22 03:57:02;;;;;;;33.40;14.98;;;;;;;;;;5013362;28;20029;-77
2022/03/22 03:59:27;;;;;;;28.00;13.65;;;;;;;;;;5020267;28;20371;-75
2022/03/22 04:01:53;;;;;;;26.02;12.88;;;;;;;;;;5029868;28;20025;-74
2022/03/22 04:04:18;;;;;;;32.28;12.43;;;;;;;;;;5019797;28;20527;-74
2022/03/22 04:06:44;;;;;;;28.58;12.32;;;;;;;;;;5006774;28;20018;-75
2022/03/22 04:09:09;;;;;;;31.23;12.35;;;;;;;;;;4991305;28;20104;-76
2022/03/22 04:11:34;;;;;;;25.42;12.75;;;;;;;;;;5008981;28;20022;-75
2022/03/22 04:13:59;;;;;;;23.65;11.77;;;;;;;;;;5011014;28;20069;-75
2022/03/22 04:16:25;;;;;;;27.13;12.45;;;;;;;;;;5010998;28;20018;-82
2022/03/22 04:18:50;;;;;;;33.58;13.00;;;;;;;;;;5014197;28;20128;-75
2022/03/22 04:21:16;;;;;;;22.20;12.02;;;;;;;;;;5011648;28;20037;-75
2022/03/22 04:23:41;;;;;;;26.95;11.85;;;;;;;;;;4994853;28;20033;-76
2022/03/22 04:26:06;;;;;;;30.20;11.25;;;;;;;;;;4990159;28;20029;-76
2022/03/22 04:34:04;;;;;;;27.25;11.00;;;;;;;;;;4995718;28;20107;-77
2022/03/22 04:36:29;;;;;;;25.20;12.07;;;;;;;;;;5029175;28;20022;-76
2022/03/22 04:38:55;;;;;;;27.48;11.23;;;;;;;;;;5030324;28;20026;-74
2022/03/22 04:41:20;;;;;;;26.75;11.93;;;;;;;;;;5029098;28;20120;-76
2022/03/22 04:43:46;;;;;;;26.92;12.48;;;;;;;;;;5030468;28;20359;-75
2022/03/22 04:46:11;;;;;;;26.33;12.05;;;;;;;;;;5028530;28;20513;-77
2022/03/22 04:48:36;;;;;;;25.42;12.48;;;;;;;;;;5026610;28;20054;-76
2022/03/22 04:56:48;;;;;;;28.08;11.65;;;;;;;;;;5010916;28;20112;-77
2022/03/22 04:59:14;;;;;;;26.80;10.90;;;;;;;;;;5008800;28;20017;-75
2022/03/22 05:01:40;;;;;;;26.73;12.95;;;;;;;;;;5011941;28;20026;-76
2022/03/22 05:04:05;;;;;;;33.30;13.60;;;;;;;;;;5032375;28;20455;-79
2022/03/22 05:06:35;;;;;;;28.35;11.88;;;;;;;;;;5036765;28;20026;-78
2022/03/22 05:09:01;;;;;;;26.55;12.65;;;;;;;;;;5031849;28;20398;-77
2022/03/22 05:11:26;;;;;;;33.58;13.07;;;;;;;;;;5016998;28;20030;-76
2022/03/22 05:13:54;;;;;;;36.72;13.00;;;;;;;;;;5012147;28;20068;-77
2022/03/22 05:16:19;;;;;;;49.53;14.77;;;;;;;;;;5014197;28;20072;-77
2022/03/22 05:18:45;;;;;;;47.55;14.63;;;;;;;;;;5014207;28;20025;-74
2022/03/22 05:21:10;;;;;;;38.60;13.95;;;;;;;;;;5013738;28;20028;-77
2022/03/22 05:23:35;;;;;;;27.55;13.57;;;;;;;;;;5013603;28;20022;-76
2022/03/22 05:26:00;;;;;;;27.58;12.90;;;;;;;;;;5013616;28;20029;-76
2022/03/22 05:28:26;;;;;;;31.63;13.32;;;;;;;;;;5012809;28;20037;-77
2022/03/22 05:30:51;;;;;;;22.65;12.32;;;;;;;;;;5013174;28;20034;-78
2022/03/22 05:33:16;;;;;;;31.75;13.05;;;;;;;;;;5013303;28;20018;-78
2022/03/22 05:35:42;;;;;;;28.60;12.88;;;;;;;;;;5013881;28;20624;-77
2022/03/22 05:38:07;;;;;;;30.00;13.77;;;;;;;;;;5014186;28;20080;-76
2022/03/22 05:40:32;;;;;;;33.58;14.35;;;;;;;;;;5014025;28;20490;-77
2022/03/22 05:42:57;;;;;;;29.20;13.52;;;;;;;;;;5013434;28;20083;-75
2022/03/22 05:45:23;;;;;;;30.60;13.80;;;;;;;;;;5013945;28;20021;-77
2022/03/22 05:47:49;;;;;;;40.63;13.65;;;;;;;;;;5020941;28;20017;-76
2022/03/22 05:50:14;;;;;;;31.48;13.27;;;;;;;;;;5031321;28;20033;-77
2022/03/22 05:52:43;;;;;;;32.78;12.98;;;;;;;;;;5022753;28;20530;-75
2022/03/22 05:55:09;;;;;;;27.98;13.93;;;;;;;;;;5004548;28;20030;-77
2022/03/22 05:57:34;;;;;;;34.00;14.93;;;;;;;;;;5012118;28;20029;-75
2022/03/22 06:00:00;;;;;;;40.53;14.43;;;;;;;;;;5012893;28;20036;-76
2022/03/22 06:02:26;;;;;;;30.33;15.48;;;;;;;;;;5021015;28;20092;-77
2022/03/22 06:04:51;;;;;;;34.28;14.02;;;;;;;;;;5013726;28;20024;-75
2022/03/22 06:07:19;;;;;;;32.22;14.45;;;;;;;;;;5011844;28;20029;-75
2022/03/22 06:09:45;;;;;;;30.13;14.25;;;;;;;;;;5016535;28;20033;-77
2022/03/22 06:12:10;;;;;;;31.80;13.82;;;;;;;;;;5022043;28;20048;-76
2022/03/22 06:14:35;;;;;;;28.80;14.45;;;;;;;;;;5021324;28;20037;-75
2022/03/22 06:17:01;;;;;;;28.00;13.95;;;;;;;;;;5015505;28;20049;-77
2022/03/22 06:19:26;;;;;;;35.80;14.30;;;;;;;;;;5013786;28;20032;-76
2022/03/22 06:21:51;;;;;;;32.35;14.80;;;;;;;;;;5011672;28;20053;-75
2022/03/22 06:24:16;;;;;;;34.33;14.30;;;;;;;;;;5011403;28;20014;-76
2022/03/22 06:26:42;;;;;;;32.53;14.32;;;;;;;;;;5012038;28;20148;-77
2022/03/22 06:29:08;;;;;;;35.45;14.80;;;;;;;;;;5011754;28;20065;-76
2022/03/22 06:31:34;;;;;;;34.08;14.55;;;;;;;;;;5017996;28;20107;-72
2022/03/22 06:34:01;;;;;;;30.63;14.50;;;;;;;;;;5022287;28;20025;-71
2022/03/22 06:36:26;;;;;;;37.40;14.82;;;;;;;;;;5015363;28;20032;-72
2022/03/22 06:38:52;;;;;;;36.20;16.42;;;;;;;;;;5011378;28;20022;-74
2022/03/22 06:41:17;;;;;;;32.80;15.48;;;;;;;;;;5011311;28;20527;-73
2022/03/22 06:43:42;;;;;;;34.28;16.45;;;;;;;;;;5018085;28;20048;-75
2022/03/22 06:46:07;;;;;;;40.47;16.23;;;;;;;;;;5021602;28;20081;-75
2022/03/22 06:48:33;;;;;;;31.10;15.77;;;;;;;;;;5021101;28;20087;-77
2022/03/22 06:50:58;;;;;;;33.28;15.75;;;;;;;;;;5019979;28;20036;-74
2022/03/22 06:53:23;;;;;;;27.65;14.85;;;;;;;;;;5022975;28;20029;-75
2022/03/22 06:55:51;;;;;;;27.02;14.20;;;;;;;;;;5023165;28;20081;-76
2022/03/22 06:58:21;;;;;;;22.95;13.48;;;;;;;;;;5017378;28;20021;-74
2022/03/22 07:00:46;;;;;;;32.15;14.90;;;;;;;;;;5012593;28;20509;-75
2022/03/22 07:03:12;;;;;;;26.25;14.88;;;;;;;;;;5011460;28;20092;-75
2022/03/22 07:05:37;;;;;;;28.58;13.75;;;;;;;;;;5011118;28;20712;-75
2022/03/22 07:08:02;;;;;;;33.70;16.13;;;;;;;;;;5011987;28;20089;-75
2022/03/22 07:10:28;;;;;;;27.75;14.50;;;;;;;;;;5011992;28;20495;-75
2022/03/22 07:12:58;;;;;;;28.80;15.05;;;;;;;;;;5012601;28;20113;-75
2022/03/22 07:15:28;;;;;;;28.05;14.63;;;;;;;;;;5014267;28;20033;-80
2022/03/22 07:17:54;;;;;;;37.00;15.13;;;;;;;;;;5016719;28;20083;-76
2022/03/22 07:20:20;;;;;;;35.75;16.25;;;;;;;;;;5010508;28;20022;-76
2022/03/22 07:22:46;;;;;;;30.77;15.85;;;;;;;;;;5012352;28;20021;-76
2022/03/22 07:25:11;;;;;;;30.48;15.73;;;;;;;;;;5011923;28;20018;-77
2022/03/22 07:27:36;;;;;;;29.70;15.23;;;;;;;;;;5011443;28;20023;-76
2022/03/22 07:30:02;;;;;;;27.85;14.32;;;;;;;;;;5010575;28;20021;-75
2022/03/22 07:32:27;;;;;;;25.58;13.80;;;;;;;;;;5010883;28;20026;-75
2022/03/22 07:34:53;;;;;;;28.67;15.60;;;;;;;;;;5010922;28;20112;-75
2022/03/22 07:37:18;;;;;;;35.40;17.02;;;;;;;;;;5013419;28;20048;-75
2022/03/22 07:39:44;;;;;;;39.55;14.98;;;;;;;;;;5014085;28;20072;-75
2022/03/22 07:42:09;;;;;;;36.05;16.95;;;;;;;;;;5014294;28;20014;-75
2022/03/22 07:44:34;;;;;;;26.95;15.00;;;;;;;;;;5025181;28;20057;-75
2022/03/22 07:47:00;;;;;;;34.90;16.85;;;;;;;;;;5031362;28;20022;-74
2022/03/22 07:54:53;;;;;;;24.90;14.18;;;;;;;;;;5030733;28;20048;-75
2022/03/22 07:57:19;;;;;;;29.60;13.98;;;;;;;;;;5030718;28;20471;-75
2022/03/22 07:59:45;;;;;;;24.05;13.98;;;;;;;;;;5017217;28;20025;-76
2022/03/22 08:02:10;;;;;;;23.95;14.75;;;;;;;;;;5021921;28;20014;-75
2022/03/22 08:04:35;;;;;;;22.93;14.33;;;;;;;;;;5020820;28;20475;-75
2022/03/22 08:07:01;;;;;;;25.65;14.13;;;;;;;;;;5018101;28;20267;-75
2022/03/22 08:09:26;;;;;;;30.88;14.73;;;;;;;;;;5009904;28;20080;-75
2022/03/22 08:11:51;;;;;;;23.13;13.90;;;;;;;;;;5018293;28;20056;-75
2022/03/22 08:14:17;;;;;;;29.80;15.65;;;;;;;;;;5017653;28;20140;-74
2022/03/22 08:16:42;;;;;;;25.25;15.38;;;;;;;;;;5020458;28;20025;-74
2022/03/22 08:19:07;;;;;;;25.40;14.30;;;;;;;;;;5016539;28;20024;-75
2022/03/22 08:21:34;;;;;;;22.90;13.38;;;;;;;;;;5018721;28;20017;-75
2022/03/22 08:23:59;;;;;;;31.63;14.75;;;;;;;;;;5015538;28;20032;-75
2022/03/22 08:26:25;;;;;;;21.65;13.27;;;;;;;;;;5010112;28;20092;-75
2022/03/22 08:28:50;;;;;;;26.02;15.00;;;;;;;;;;5009751;28;20041;-74
2022/03/22 08:31:15;;;;;;;23.80;14.33;;;;;;;;;;5016409;28;20018;-74
2022/03/22 08:33:41;;;;;;;24.58;13.73;;;;;;;;;;5010430;28;21033;-75
2022/03/22 08:36:07;;;;;;;25.42;13.65;;;;;;;;;;5019975;28;20382;-75
2022/03/22 08:38:32;;;;;;;23.95;14.32;;;;;;;;;;5014142;28;20105;-75
2022/03/22 08:40:57;;;;;;;24.30;13.77;;;;;;;;;;5012638;28;20095;-75
2022/03/22 08:43:26;;;;;;;29.97;14.50;;;;;;;;;;5017154;28;20359;-76
2022/03/22 08:45:54;;;;;;;21.70;14.18;;;;;;;;;;5011222;28;20262;-75
2022/03/22 08:48:20;;;;;;;22.02;13.45;;;;;;;;;;5021436;28;20014;-74
2022/03/22 08:50:49;;;;;;;22.58;13.32;;;;;;;;;;5019165;28;20045;-75
2022/03/22 08:53:16;;;;;;;21.00;13.70;;;;;;;;;;5009910;28;20018;-76
2022/03/22 08:55:42;;;;;;;32.13;15.55;;;;;;;;;;5009232;28;20030;-78
2022/03/22 08:58:08;;;;;;;23.92;15.05;;;;;;;;;;5017344;28;20440;-74
2022/03/22 09:00:34;;;;;;;23.63;14.98;;;;;;;;;;5020523;28;20017;-77
2022/03/22 09:02:59;;;;;;;27.00;15.43;;;;;;;;;;5020001;28;20029;-75
2022/03/22 09:08:09;;;;;;;25.65;14.20;;;;;;;;;;5021194;28;20032;-81
2022/03/22 09:10:35;;;;;;;25.23;14.33;;;;;;;;;;5022779;28;20033;-78
2022/03/22 09:13:04;;;;;;;25.88;14.07;;;;;;;;;;5015649;28;20275;-81
2022/03/22 09:15:30;;;;;;;22.20;12.80;;;;;;;;;;5021770;28;20043;-80
2022/03/22 09:17:56;;;;;;;25.67;13.40;;;;;;;;;;5009182;28;20081;-79
2022/03/22 09:20:21;;;;;;;21.63;12.40;;;;;;;;;;5010707;28;20014;-79
2022/03/22 09:22:51;;;;;;;18.77;12.23;;;;;;;;;;5010521;28;20444;-76
2022/03/22 09:25:17;;;;;;;21.70;11.98;;;;;;;;;;5012909;28;20530;-82
2022/03/22 09:27:43;;;;;;;20.42;11.68;;;;;;;;;;5029134;28;20027;-88
2022/03/22 09:30:09;;;;;;;19.80;13.23;;;;;;;;;;5025087;28;20549;-77
2022/03/22 09:32:35;;;;;;;23.35;13.50;;;;;;;;;;5018842;28;20062;-76
2022/03/22 09:35:00;;;;;;;19.65;12.63;;;;;;;;;;5018193;28;20054;-75
2022/03/22 09:37:28;;;;;;;24.23;13.20;;;;;;;;;;5021482;28;20010;-77
2022/03/22 09:39:53;;;;;;;19.80;12.50;;;;;;;;;;4997885;28;20049;-78
2022/03/22 09:42:19;;;;;;;18.23;12.15;;;;;;;;;;5015918;28;20064;-78
2022/03/22 09:44:48;;;;;;;28.53;15.83;;;;;;;;;;5022920;28;20032;-81
2022/03/22 09:47:14;;;;;;;24.10;12.45;;;;;;;;;;5034294;28;20290;-79
2022/03/22 09:49:39;;;;;;;26.30;16.55;;;;;;;;;;5032397;28;20398;-79
2022/03/22 09:52:05;;;;;;;18.83;12.95;;;;;;;;;;5032391;28;20014;-76
2022/03/22 09:54:30;;;;;;;17.85;12.23;;;;;;;;;;5031646;28;20033;-79
2022/03/22 09:56:56;;;;;;;19.70;11.57;;;;;;;;;;5031025;28;20029;-79
2022/03/22 09:59:21;;;;;;;17.23;12.17;;;;;;;;;;5034824;28;20029;-79
2022/03/22 10:01:46;;;;;;;26.23;12.05;;;;;;;;;;5024431;28;20251;-76
2022/03/22 10:04:13;;;;;;;16.58;11.68;;;;;;;;;;5021384;28;20029;-78
2022/03/22 10:06:39;;;;;;;23.63;12.95;;;;;;;;;;5021008;28;20057;-79
2022/03/22 10:09:07;;;;;;;19.08;10.88;;;;;;;;;;5019450;28;20151;-79
2022/03/22 10:11:35;;;;;;;18.92;11.50;;;;;;;;;;5013295;28;20101;-78
2022/03/22 10:14:03;;;;;;;19.98;11.82;;;;;;;;;;5022702;28;20042;-79
2022/03/22 10:16:29;;;;;;;14.75;10.93;;;;;;;;;;5022807;28;20044;-79
2022/03/22 10:18:54;;;;;;;18.23;11.32;;;;;;;;;;5015906;28;20018;-81
2022/03/22 10:21:20;;;;;;;17.88;11.68;;;;;;;;;;5021437;28;20018;-76
2022/03/22 10:23:55;;;;;;;19.42;11.88;;;;;;;;;;5022811;28;20056;-75
2022/03/22 10:26:21;;;;;;;19.38;11.30;;;;;;;;;;5019928;28;20017;-75
2022/03/22 10:28:50;;;;;;;24.65;12.85;;;;;;;;;;5021223;28;20048;-74
2022/03/22 10:31:16;;;;;;;20.05;11.23;;;;;;;;;;5012949;28;20796;-75
2022/03/22 10:33:52;;;;;;;28.45;13.35;;;;;;;;;;5022186;28;20022;-74
2022/03/22 10:36:18;;;;;;;30.20;16.70;;;;;;;;;;5018555;28;20018;-74
2022/03/22 10:38:54;;;;;;;20.25;13.63;;;;;;;;;;5022479;28;20020;-77
2022/03/22 10:41:19;;;;;;;;;;;;;;;;;;5019990;28;20022;-74
2022/03/22 10:43:45;;;;;;;23.65;11.48;;;;;;;;;;5020354;28;20397;-75
2022/03/22 10:46:11;;;;;;;17.10;11.13;;;;;;;;;;5023128;28;20028;-77
2022/03/22 10:48:38;;;;;;;18.25;10.10;;;;;;;;;;5023352;28;20152;-75
2022/03/22 10:51:05;;;;;;;21.60;10.75;;;;;;;;;;5016837;28;20022;-77
2022/03/22 10:53:32;;;;;;;18.15;10.38;;;;;;;;;;5020474;28;20033;-75
2022/03/22 10:55:58;;;;;;;21.77;13.35;;;;;;;;;;5011766;28;20654;-76
2022/03/22 10:58:25;;;;;;;15.90;10.20;;;;;;;;;;5021315;28;20018;-75
2022/03/22 11:00:50;;;;;;;17.65;10.48;;;;;;;;;;5016747;28;20021;-75
2022/03/22 11:03:19;;;;;;;15.23;9.55;;;;;;;;;;5020629;28;20407;-75
2022/03/22 11:05:46;;;;;;;15.05;10.00;;;;;;;;;;5021878;28;20026;-77
2022/03/22 11:08:11;;;;;;;15.77;10.25;;;;;;;;;;5019739;28;20497;-75
2022/03/22 11:10:37;;;;;;;17.83;10.32;;;;;;;;;;5019976;28;20030;-73
2022/03/22 11:13:02;;;;;;;14.95;9.93;;;;;;;;;;5018112;28;20046;-73
2022/03/22 11:15:30;;;;;;;27.50;10.27;;;;;;;;;;5015733;28;20022;-75
2022/03/22 11:17:56;;;;;;;23.17;10.82;;;;;;;;;;5014203;28;20277;-76
2022/03/22 11:20:22;;;;;;;17.83;11.40;;;;;;;;;;5009946;28;20030;-75
2022/03/22 11:22:51;;;;;;;21.65;11.13;;;;;;;;;;5010850;28;20029;-77
2022/03/22 11:25:18;;;;;;;17.08;10.57;;;;;;;;;;4992103;28;20015;-75
2022/03/22 11:27:54;;;;;;;14.23;9.77;;;;;;;;;;4992442;28;20165;-75
2022/03/22 11:30:19;;;;;;;19.58;11.05;;;;;;;;;;5004187;28;20030;-74
2022/03/22 11:35:28;;;;;;;17.83;11.02;;;;;;;;;;5017231;28;20052;-77
2022/03/22 11:38:00;;;;;;;18.15;10.50;;;;;;;;;;5018140;28;20022;-76
2022/03/22 11:43:11;;;;;;;19.25;10.38;;;;;;;;;;5012525;28;20086;-76
2022/03/22 11:45:51;;;;;;;17.73;10.40;;;;;;;;;;5011936;28;20018;-75
2022/03/22 11:48:17;;;;;;;19.45;10.65;;;;;;;;;;5010594;28;20040;-74
2022/03/22 11:50:46;;;;;;;25.05;12.30;;;;;;;;;;5010230;28;20041;-74
2022/03/22 11:53:18;;;;;;;22.23;11.48;;;;;;;;;;5012103;28;20044;-76
2022/03/22 11:55:46;;;;;;;21.70;11.60;;;;;;;;;;5010753;28;20487;-76
2022/03/22 11:58:12;;;;;;;16.98;9.43;;;;;;;;;;5010443;28;20014;-76
2022/03/22 12:01:00;;;;;;;17.98;10.43;;;;;;;;;;5010133;28;20540;-76
2022/03/22 12:03:32;;;;;;;16.95;10.05;;;;;;;;;;5011991;28;20029;-76
2022/03/22 12:06:08;;;;;;;22.13;10.43;;;;;;;;;;5009252;28;20014;-76
2022/03/22 12:08:33;;;;;;;;;;;;;;;;;;5019998;28;20065;-75
2022/03/22 12:11:01;;;;;;;16.60;10.23;;;;;;;;;;5020406;28;20021;-76
2022/03/22 12:13:26;;;;;;;21.17;9.82;;;;;;;;;;5020257;28;20297;-75
2022/03/22 12:15:59;;;;;;;18.40;10.32;;;;;;;;;;5009550;28;20422;-75
2022/03/22 12:18:29;;;;;;;15.90;10.25;;;;;;;;;;5011069;28;20013;-74
2022/03/22 12:20:56;;;;;;;16.67;9.73;;;;;;;;;;5020248;28;20014;-76
2022/03/22 12:23:22;;;;;;;21.90;9.88;;;;;;;;;;5017386;28;20018;-75
2022/03/22 12:25:47;;;;;;;18.95;9.27;;;;;;;;;;5020995;28;20010;-75
2022/03/22 12:28:12;;;;;;;15.93;9.70;;;;;;;;;;5022989;28;20044;-75
2022/03/22 12:30:42;;;;;;;19.45;10.02;;;;;;;;;;5021906;28;20033;-77
2022/03/22 12:33:10;;;;;;;16.10;9.23;;;;;;;;;;5012177;28;20033;-74
2022/03/22 12:35:36;;;;;;;24.30;10.25;;;;;;;;;;5017324;28;20034;-73
2022/03/22 12:38:01;;;;;;;13.50;9.57;;;;;;;;;;5020567;28;20359;-75
2022/03/22 12:40:26;;;;;;;18.05;9.85;;;;;;;;;;5021635;28;20017;-75
2022/03/22 12:42:52;;;;;;;15.30;9.35;;;;;;;;;;5018122;28;20049;-74
2022/03/22 12:45:18;;;;;;;18.08;9.65;;;;;;;;;;5009611;28;20050;-75
2022/03/22 12:47:44;;;;;;;13.52;9.05;;;;;;;;;;5016386;28;20048;-74
2022/03/22 12:50:11;;;;;;;16.38;9.75;;;;;;;;;;5019666;28;20083;-75
2022/03/22 12:52:36;;;;;;;14.70;8.85;;;;;;;;;;5009146;28;20482;-74
2022/03/22 12:55:02;;;;;;;41.53;10.50;;;;;;;;;;5016353;28;20034;-76
2022/03/22 12:57:29;;;;;;;16.17;8.75;;;;;;;;;;5014992;28;20079;-75
2022/03/22 12:59:55;;;;;;;25.90;9.57;;;;;;;;;;5019525;28;20018;-73
2022/03/22 13:02:20;;;;;;;15.57;8.43;;;;;;;;;;5019844;28;20047;-75
2022/03/22 13:04:48;;;;;;;18.50;9.68;;;;;;;;;;5020351;28;20383;-76
2022/03/22 13:07:15;;;;;;;15.25;9.57;;;;;;;;;;5018501;28;20014;-79
2022/03/22 13:12:24;;;;;;;18.45;9.32;;;;;;;;;;5016244;28;20121;-76
2022/03/22 13:15:02;;;;;;;20.60;9.80;;;;;;;;;;5015177;28;20554;-75
2022/03/22 13:17:28;;;;;;;16.13;9.57;;;;;;;;;;5019238;28;20132;-78
2022/03/22 13:19:54;;;;;;;14.88;8.65;;;;;;;;;;5016041;28;20030;-75
2022/03/22 13:22:21;;;;;;;15.75;8.65;;;;;;;;;;5016542;28;20050;-74
2022/03/22 13:24:50;;;;;;;15.77;9.45;;;;;;;;;;5014604;28;20026;-75
2022/03/22 13:27:17;;;;;;;15.93;8.77;;;;;;;;;;5017488;28;20086;-85
2022/03/22 13:29:43;;;;;;;14.18;9.27;;;;;;;;;;5018986;28;20044;-80
2022/03/22 13:32:10;;;;;;;20.05;9.20;;;;;;;;;;5023726;28;20100;-76
2022/03/22 13:34:36;;;;;;;11.95;8.13;;;;;;;;;;5026586;28;20081;-81
2022/03/22 13:37:25;;;;;;;12.50;8.38;;;;;;;;;;5031759;28;20029;-77
2022/03/22 13:39:52;;;;;;;16.13;8.63;;;;;;;;;;5023025;28;20093;-83
2022/03/22 13:42:17;;;;;;;17.20;8.75;;;;;;;;;;5019145;28;20109;-86
2022/03/22 13:44:55;;;;;;;15.20;8.27;;;;;;;;;;5018799;28;20006;-77
2022/03/22 13:47:37;;;;;;;13.52;8.70;;;;;;;;;;5016718;28;20018;-86
2022/03/22 13:50:14;;;;;;;16.67;8.15;;;;;;;;;;5024006;28;20076;-76
2022/03/22 13:52:40;;;;;;;14.57;8.00;;;;;;;;;;5017507;28;20025;-77
2022/03/22 13:55:18;;;;;;;16.17;8.32;;;;;;;;;;5021743;28;20052;-75
2022/03/22 13:57:51;;;;;;;11.88;7.97;;;;;;;;;;5020564;28;20017;-77
2022/03/22 14:00:16;;;;;;;14.45;8.57;;;;;;;;;;5020364;28;20026;-75
2022/03/22 14:02:41;;;;;;;14.90;8.60;;;;;;;;;;5019536;28;20017;-75
2022/03/22 14:05:07;;;;;;;15.25;9.15;;;;;;;;;;4998492;28;20116;-74
2022/03/22 14:07:32;;;;;;;17.38;8.30;;;;;;;;;;5013093;28;20030;-74
2022/03/22 14:09:57;;;;;;;14.15;6.95;;;;;;;;;;5019356;28;20029;-74
2022/03/22 14:12:23;;;;;;;10.75;6.70;;;;;;;;;;5020010;28;20046;-73
2022/03/22 14:14:48;;;;;;;13.55;6.95;;;;;;;;;;5014560;28;20497;-73
2022/03/22 14:17:14;;;;;;;13.73;7.47;;;;;;;;;;5014960;28;20060;-75
2022/03/22 14:19:39;;;;;;;13.85;6.80;;;;;;;;;;5018120;28;20040;-74
2022/03/22 14:22:05;;;;;;;15.20;8.20;;;;;;;;;;5019769;28;20390;-74
2022/03/22 14:24:31;;;;;;;17.08;7.90;;;;;;;;;;5016497;28;20080;-74
2022/03/22 14:26:57;;;;;;;10.77;7.13;;;;;;;;;;5035638;28;20018;-75
2022/03/22 14:29:22;;;;;;;16.08;7.20;;;;;;;;;;5017641;28;20040;-76
2022/03/22 14:31:47;;;;;;;14.27;7.50;;;;;;;;;;5022234;28;20100;-76
2022/03/22 14:35:46;;;;;;;11.20;7.18;;;;;;;;;;5022223;28;20030;-76
2022/03/22 14:37:01;;;;;;;10.07;6.45;;;;;;;;;;5016929;28;20025;-75
2022/03/22 14:39:27;;;;;;;13.10;7.20;;;;;;;;;;5020409;28;20025;-75
2022/03/22 14:41:55;;;;;;;10.25;6.60;;;;;;;;;;5017859;28;20017;-78
2022/03/22 14:44:20;;;;;;;12.40;7.93;;;;;;;;;;5015960;28;20060;-75
2022/03/22 14:46:48;;;;;;;9.50;6.18;;;;;;;;;;5018764;28;20040;-75
2022/03/22 14:49:15;;;;;;;12.75;6.75;;;;;;;;;;5015792;28;20022;-75
2022/03/22 14:54:24;;;;;;;15.55;7.03;;;;;;;;;;5022704;28;20552;-78
2022/03/22 14:59:33;;;;;;;10.25;7.05;;;;;;;;;;5013541;28;20324;-77